Città:
 IT 
 EN 
 FR 
 DE 
 ES 

Dati meteo attuali Milano

Datameteo.com - Informazione e servizi avanzati per la meteorologia,la nautica e la protezione civile
Milano / Linate, Italy
Alba: 6:02 AM UTC1
Tramonto: 6:29 PM UTC1
 Lat: 45.42N, Lon: 9.27E
ICAO Used: LIML
Condizioni Meteo Attuali Aggiornate: 18.09.2021 alle 04:20 UTC
Coperto
Coperto
Coperto
Temp: 20°C
Umidita': 88%
Direz/Vel. Vento: E 5 / KT raffiche
Pressione: 1012 hPa
Punto di rugiada: 18°C
Temperatura percepita: 21°C
Visibilitą: >10 KM (ottima)
Temperatura percepita in
presenza di vento (Wind Chill)
:
20°C
T. max (ultime 24 ore): 20°C
T. min (ultime 24 ore): 20°C


METAR ORIGINALE
LIML 180420Z 10005KT 050V120 9999 SCT010 SCT030 20/18 Q1012 NOSIG



[ Indietro ]


Elaborazione dati by Datameteo.com - Lrc srl Copyright ©, All rights reserved.
Visualizza la versione web
©2010 Datameteo.com
weather mobile,mobile weather,meteo mobile,mobile meteo,meteo sul telefonino datameteo.com